sensor_id;sensor_type;location;lat;lon;timestamp;P1;durP1;ratioP1;P2;durP2;ratioP2
43678;SDS011;29279;50.858;4.392;2022-09-20T00:01:10;7.82;;;1.48;;
43678;SDS011;29279;50.858;4.392;2022-09-20T00:03:38;5.82;;;1.60;;
43678;SDS011;29279;50.858;4.392;2022-09-20T00:06:07;6.43;;;1.20;;
43678;SDS011;29279;50.858;4.392;2022-09-20T00:08:34;11.32;;;1.63;;
43678;SDS011;29279;50.858;4.392;2022-09-20T00:11:01;8.88;;;1.90;;
43678;SDS011;29279;50.858;4.392;2022-09-20T00:13:33;10.05;;;1.75;;
43678;SDS011;29279;50.858;4.392;2022-09-20T00:16:03;11.52;;;1.95;;
43678;SDS011;29279;50.858;4.392;2022-09-20T00:18:39;9.25;;;1.52;;
43678;SDS011;29279;50.858;4.392;2022-09-20T00:21:05;4.93;;;1.20;;
43678;SDS011;29279;50.858;4.392;2022-09-20T00:23:32;12.23;;;1.40;;
43678;SDS011;29279;50.858;4.392;2022-09-20T00:26:02;9.40;;;1.60;;
43678;SDS011;29279;50.858;4.392;2022-09-20T00:28:29;6.38;;;1.40;;
43678;SDS011;29279;50.858;4.392;2022-09-20T00:30:56;9.27;;;1.70;;
43678;SDS011;29279;50.858;4.392;2022-09-20T00:33:22;10.73;;;2.00;;
43678;SDS011;29279;50.858;4.392;2022-09-20T00:36:09;14.38;;;2.08;;
43678;SDS011;29279;50.858;4.392;2022-09-20T00:38:35;6.30;;;1.48;;
43678;SDS011;29279;50.858;4.392;2022-09-20T00:41:00;10.80;;;2.13;;
43678;SDS011;29279;50.858;4.392;2022-09-20T00:43:40;8.60;;;1.75;;
43678;SDS011;29279;50.858;4.392;2022-09-20T00:48:51;7.32;;;1.60;;
43678;SDS011;29279;50.858;4.392;2022-09-20T00:51:26;7.55;;;2.00;;
43678;SDS011;29279;50.858;4.392;2022-09-20T00:53:55;5.20;;;1.83;;
43678;SDS011;29279;50.858;4.392;2022-09-20T00:56:25;7.32;;;1.90;;
43678;SDS011;29279;50.858;4.392;2022-09-20T01:01:43;9.93;;;1.67;;
43678;SDS011;29279;50.858;4.392;2022-09-20T01:04:11;10.75;;;1.83;;
43678;SDS011;29279;50.858;4.392;2022-09-20T01:06:39;6.90;;;1.77;;
43678;SDS011;29279;50.858;4.392;2022-09-20T01:09:07;7.93;;;1.60;;
43678;SDS011;29279;50.858;4.392;2022-09-20T01:11:34;10.75;;;2.22;;
43678;SDS011;29279;50.858;4.392;2022-09-20T01:14:00;6.47;;;2.10;;
43678;SDS011;29279;50.858;4.392;2022-09-20T01:16:26;9.00;;;1.50;;
43678;SDS011;29279;50.858;4.392;2022-09-20T01:18:55;4.03;;;1.45;;
43678;SDS011;29279;50.858;4.392;2022-09-20T01:21:23;9.63;;;2.35;;
43678;SDS011;29279;50.858;4.392;2022-09-20T01:29:37;8.02;;;2.30;;
43678;SDS011;29279;50.858;4.392;2022-09-20T01:35:27;8.85;;;1.77;;
43678;SDS011;29279;50.858;4.392;2022-09-20T01:43:18;7.13;;;1.77;;
43678;SDS011;29279;50.858;4.392;2022-09-20T01:48:49;9.88;;;2.05;;
43678;SDS011;29279;50.858;4.392;2022-09-20T01:51:41;14.00;;;2.35;;
43678;SDS011;29279;50.858;4.392;2022-09-20T02:05:08;11.77;;;2.42;;
43678;SDS011;29279;50.858;4.392;2022-09-20T02:08:00;9.15;;;1.90;;
43678;SDS011;29279;50.858;4.392;2022-09-20T02:16:37;7.88;;;2.65;;
43678;SDS011;29279;50.858;4.392;2022-09-20T02:35:23;10.80;;;3.22;;
43678;SDS011;29279;50.858;4.392;2022-09-20T02:38:18;9.10;;;3.20;;
43678;SDS011;29279;50.858;4.392;2022-09-20T02:46:05;10.90;;;3.33;;
43678;SDS011;29279;50.858;4.392;2022-09-20T02:51:50;11.00;;;3.75;;
43678;SDS011;29279;50.858;4.392;2022-09-20T02:56:46;13.27;;;4.00;;
43678;SDS011;29279;50.858;4.392;2022-09-20T02:59:49;10.90;;;3.08;;
43678;SDS011;29279;50.858;4.392;2022-09-20T03:10:27;10.75;;;3.05;;
43678;SDS011;29279;50.858;4.392;2022-09-20T03:13:09;7.97;;;3.00;;
43678;SDS011;29279;50.858;4.392;2022-09-20T03:26:36;13.23;;;2.83;;
43678;SDS011;29279;50.858;4.392;2022-09-20T03:42:51;11.75;;;3.58;;
43678;SDS011;29279;50.858;4.392;2022-09-20T03:56:34;8.25;;;2.95;;
43678;SDS011;29279;50.858;4.392;2022-09-20T04:01:46;11.45;;;3.72;;
43678;SDS011;29279;50.858;4.392;2022-09-20T04:09:32;10.35;;;2.72;;
43678;SDS011;29279;50.858;4.392;2022-09-20T04:20:30;12.27;;;3.40;;
43678;SDS011;29279;50.858;4.392;2022-09-20T04:26:19;8.98;;;2.75;;
43678;SDS011;29279;50.858;4.392;2022-09-20T04:31:29;12.00;;;3.58;;
43678;SDS011;29279;50.858;4.392;2022-09-20T04:34:12;10.40;;;3.22;;
43678;SDS011;29279;50.858;4.392;2022-09-20T04:36:56;7.32;;;2.80;;
43678;SDS011;29279;50.858;4.392;2022-09-20T04:39:46;10.35;;;3.33;;
43678;SDS011;29279;50.858;4.392;2022-09-20T04:42:39;13.10;;;3.97;;
43678;SDS011;29279;50.858;4.392;2022-09-20T04:45:43;17.73;;;4.07;;
43678;SDS011;29279;50.858;4.392;2022-09-20T04:56:47;16.92;;;4.00;;
43678;SDS011;29279;50.858;4.392;2022-09-20T05:18:33;11.65;;;4.63;;
43678;SDS011;29279;50.858;4.392;2022-09-20T05:32:29;15.23;;;4.28;;
43678;SDS011;29279;50.858;4.392;2022-09-20T05:35:10;22.83;;;4.30;;
43678;SDS011;29279;50.858;4.392;2022-09-20T05:42:58;8.77;;;4.03;;
43678;SDS011;29279;50.858;4.392;2022-09-20T05:48:09;25.33;;;4.32;;
43678;SDS011;29279;50.858;4.392;2022-09-20T05:50:45;20.20;;;4.90;;
43678;SDS011;29279;50.858;4.392;2022-09-20T06:02:02;15.02;;;4.60;;
43678;SDS011;29279;50.858;4.392;2022-09-20T06:13:22;18.88;;;4.20;;
43678;SDS011;29279;50.858;4.392;2022-09-20T06:16:01;12.35;;;4.35;;
43678;SDS011;29279;50.858;4.392;2022-09-20T06:23:47;22.83;;;4.65;;
43678;SDS011;29279;50.858;4.392;2022-09-20T06:26:15;17.27;;;5.50;;
43678;SDS011;29279;50.858;4.392;2022-09-20T06:28:50;18.33;;;4.78;;
43678;SDS011;29279;50.858;4.392;2022-09-20T06:31:22;13.48;;;4.30;;
43678;SDS011;29279;50.858;4.392;2022-09-20T06:36:22;21.92;;;5.15;;
43678;SDS011;29279;50.858;4.392;2022-09-20T06:39:32;18.00;;;6.00;;
43678;SDS011;29279;50.858;4.392;2022-09-20T06:42:26;13.10;;;3.97;;
43678;SDS011;29279;50.858;4.392;2022-09-20T06:44:53;13.32;;;5.43;;
43678;SDS011;29279;50.858;4.392;2022-09-20T06:47:20;22.48;;;5.13;;
43678;SDS011;29279;50.858;4.392;2022-09-20T06:49:47;17.90;;;5.07;;
43678;SDS011;29279;50.858;4.392;2022-09-20T06:52:17;18.95;;;5.15;;
43678;SDS011;29279;50.858;4.392;2022-09-20T06:54:45;15.50;;;5.35;;
43678;SDS011;29279;50.858;4.392;2022-09-20T06:57:14;24.85;;;5.75;;
43678;SDS011;29279;50.858;4.392;2022-09-20T06:59:42;17.58;;;5.53;;
43678;SDS011;29279;50.858;4.392;2022-09-20T07:02:08;19.08;;;5.47;;
43678;SDS011;29279;50.858;4.392;2022-09-20T07:04:35;14.43;;;5.20;;
43678;SDS011;29279;50.858;4.392;2022-09-20T07:07:01;22.90;;;5.63;;
43678;SDS011;29279;50.858;4.392;2022-09-20T07:09:28;18.52;;;5.20;;
43678;SDS011;29279;50.858;4.392;2022-09-20T07:11:54;20.52;;;5.97;;
43678;SDS011;29279;50.858;4.392;2022-09-20T07:14:21;17.13;;;5.43;;
43678;SDS011;29279;50.858;4.392;2022-09-20T07:16:47;19.77;;;5.68;;
43678;SDS011;29279;50.858;4.392;2022-09-20T07:19:13;15.15;;;5.82;;
43678;SDS011;29279;50.858;4.392;2022-09-20T07:21:40;20.83;;;5.85;;
43678;SDS011;29279;50.858;4.392;2022-09-20T07:24:06;16.08;;;5.07;;
43678;SDS011;29279;50.858;4.392;2022-09-20T07:26:31;26.77;;;6.22;;
43678;SDS011;29279;50.858;4.392;2022-09-20T07:28:58;16.33;;;5.68;;
43678;SDS011;29279;50.858;4.392;2022-09-20T07:31:24;16.08;;;5.20;;
43678;SDS011;29279;50.858;4.392;2022-09-20T07:33:51;16.55;;;4.90;;
43678;SDS011;29279;50.858;4.392;2022-09-20T07:36:17;21.00;;;5.93;;
43678;SDS011;29279;50.858;4.392;2022-09-20T07:38:50;18.52;;;5.47;;
43678;SDS011;29279;50.858;4.392;2022-09-20T07:41:17;17.00;;;5.28;;
43678;SDS011;29279;50.858;4.392;2022-09-20T07:43:44;15.35;;;5.32;;
43678;SDS011;29279;50.858;4.392;2022-09-20T07:46:10;36.83;;;6.45;;
43678;SDS011;29279;50.858;4.392;2022-09-20T07:48:38;28.20;;;6.32;;
43678;SDS011;29279;50.858;4.392;2022-09-20T07:51:05;49.75;;;7.20;;
43678;SDS011;29279;50.858;4.392;2022-09-20T07:53:33;32.78;;;6.57;;
43678;SDS011;29279;50.858;4.392;2022-09-20T07:58:34;11.65;;;5.75;;
43678;SDS011;29279;50.858;4.392;2022-09-20T08:01:04;29.45;;;6.05;;
43678;SDS011;29279;50.858;4.392;2022-09-20T08:03:32;18.75;;;5.30;;
43678;SDS011;29279;50.858;4.392;2022-09-20T08:05:59;17.70;;;5.05;;
43678;SDS011;29279;50.858;4.392;2022-09-20T08:08:25;20.15;;;5.15;;
43678;SDS011;29279;50.858;4.392;2022-09-20T08:10:51;20.45;;;4.80;;
43678;SDS011;29279;50.858;4.392;2022-09-20T08:13:19;15.85;;;4.97;;
43678;SDS011;29279;50.858;4.392;2022-09-20T08:15:45;15.60;;;5.40;;
43678;SDS011;29279;50.858;4.392;2022-09-20T08:18:12;18.60;;;5.07;;
43678;SDS011;29279;50.858;4.392;2022-09-20T08:20:40;19.60;;;5.00;;
43678;SDS011;29279;50.858;4.392;2022-09-20T08:23:05;19.60;;;3.83;;
43678;SDS011;29279;50.858;4.392;2022-09-20T08:25:33;19.02;;;4.85;;
43678;SDS011;29279;50.858;4.392;2022-09-20T08:27:59;15.10;;;4.47;;
43678;SDS011;29279;50.858;4.392;2022-09-20T08:30:25;16.50;;;4.70;;
43678;SDS011;29279;50.858;4.392;2022-09-20T08:32:50;14.80;;;3.88;;
43678;SDS011;29279;50.858;4.392;2022-09-20T08:35:17;13.63;;;3.85;;
43678;SDS011;29279;50.858;4.392;2022-09-20T08:37:43;12.20;;;4.55;;
43678;SDS011;29279;50.858;4.392;2022-09-20T08:40:12;14.43;;;4.88;;
43678;SDS011;29279;50.858;4.392;2022-09-20T08:42:39;17.80;;;5.13;;
43678;SDS011;29279;50.858;4.392;2022-09-20T08:45:15;14.32;;;5.03;;
43678;SDS011;29279;50.858;4.392;2022-09-20T08:47:47;17.52;;;4.32;;
43678;SDS011;29279;50.858;4.392;2022-09-20T08:50:14;14.43;;;4.18;;
43678;SDS011;29279;50.858;4.392;2022-09-20T08:52:42;13.52;;;4.50;;
43678;SDS011;29279;50.858;4.392;2022-09-20T08:55:21;20.67;;;4.80;;
43678;SDS011;29279;50.858;4.392;2022-09-20T08:57:52;19.92;;;4.95;;
43678;SDS011;29279;50.858;4.392;2022-09-20T09:00:38;13.68;;;4.55;;
43678;SDS011;29279;50.858;4.392;2022-09-20T09:03:09;12.02;;;3.75;;
43678;SDS011;29279;50.858;4.392;2022-09-20T09:05:43;11.13;;;3.83;;
43678;SDS011;29279;50.858;4.392;2022-09-20T09:08:43;10.82;;;4.40;;
43678;SDS011;29279;50.858;4.392;2022-09-20T09:11:04;14.05;;;4.20;;
43678;SDS011;29279;50.858;4.392;2022-09-20T09:16:21;15.02;;;4.78;;
43678;SDS011;29279;50.858;4.392;2022-09-20T09:18:49;17.00;;;4.28;;
43678;SDS011;29279;50.858;4.392;2022-09-20T09:21:17;25.63;;;5.45;;
43678;SDS011;29279;50.858;4.392;2022-09-20T09:24:03;23.77;;;5.35;;
43678;SDS011;29279;50.858;4.392;2022-09-20T09:26:34;26.17;;;4.65;;
43678;SDS011;29279;50.858;4.392;2022-09-20T09:31:43;8.35;;;2.67;;
43678;SDS011;29279;50.858;4.392;2022-09-20T09:34:28;10.48;;;2.95;;
43678;SDS011;29279;50.858;4.392;2022-09-20T09:36:56;8.38;;;2.60;;
43678;SDS011;29279;50.858;4.392;2022-09-20T09:41:55;9.63;;;3.00;;
43678;SDS011;29279;50.858;4.392;2022-09-20T09:46:55;21.75;;;3.92;;
43678;SDS011;29279;50.858;4.392;2022-09-20T09:49:25;10.25;;;3.00;;
43678;SDS011;29279;50.858;4.392;2022-09-20T09:54:38;16.52;;;2.85;;
43678;SDS011;29279;50.858;4.392;2022-09-20T10:07:45;9.23;;;2.13;;
43678;SDS011;29279;50.858;4.392;2022-09-20T10:10:30;8.70;;;1.90;;
43678;SDS011;29279;50.858;4.392;2022-09-20T10:13:27;13.73;;;2.55;;
43678;SDS011;29279;50.858;4.392;2022-09-20T10:32:32;9.85;;;2.85;;
43678;SDS011;29279;50.858;4.392;2022-09-20T10:35:34;13.77;;;2.85;;
43678;SDS011;29279;50.858;4.392;2022-09-20T10:40:57;10.38;;;2.80;;
43678;SDS011;29279;50.858;4.392;2022-09-20T10:54:44;11.57;;;3.08;;
43678;SDS011;29279;50.858;4.392;2022-09-20T11:00:07;10.88;;;2.40;;
43678;SDS011;29279;50.858;4.392;2022-09-20T11:05:42;10.68;;;2.78;;
43678;SDS011;29279;50.858;4.392;2022-09-20T11:08:35;13.63;;;2.70;;
43678;SDS011;29279;50.858;4.392;2022-09-20T11:16:47;13.70;;;3.22;;
43678;SDS011;29279;50.858;4.392;2022-09-20T11:22:04;15.98;;;3.63;;
43678;SDS011;29279;50.858;4.392;2022-09-20T11:32:50;15.65;;;2.90;;
43678;SDS011;29279;50.858;4.392;2022-09-20T11:35:35;8.52;;;3.05;;
43678;SDS011;29279;50.858;4.392;2022-09-20T11:38:14;10.35;;;3.30;;
43678;SDS011;29279;50.858;4.392;2022-09-20T11:43:35;12.77;;;3.03;;
43678;SDS011;29279;50.858;4.392;2022-09-20T11:46:07;9.35;;;3.75;;
43678;SDS011;29279;50.858;4.392;2022-09-20T11:57:30;8.55;;;2.47;;
43678;SDS011;29279;50.858;4.392;2022-09-20T12:00:00;8.00;;;2.10;;
43678;SDS011;29279;50.858;4.392;2022-09-20T12:05:05;8.35;;;2.28;;
43678;SDS011;29279;50.858;4.392;2022-09-20T12:07:46;6.30;;;2.35;;
43678;SDS011;29279;50.858;4.392;2022-09-20T12:10:27;8.55;;;2.40;;
43678;SDS011;29279;50.858;4.392;2022-09-20T12:13:23;13.00;;;2.85;;
43678;SDS011;29279;50.858;4.392;2022-09-20T12:16:02;18.98;;;4.30;;
43678;SDS011;29279;50.858;4.392;2022-09-20T12:21:23;15.30;;;2.97;;
43678;SDS011;29279;50.858;4.392;2022-09-20T12:28:57;10.30;;;3.50;;
43678;SDS011;29279;50.858;4.392;2022-09-20T12:36:42;16.25;;;3.05;;
43678;SDS011;29279;50.858;4.392;2022-09-20T12:39:33;7.30;;;2.53;;
43678;SDS011;29279;50.858;4.392;2022-09-20T12:49:38;10.50;;;2.38;;
43678;SDS011;29279;50.858;4.392;2022-09-20T13:03:30;6.28;;;1.80;;
43678;SDS011;29279;50.858;4.392;2022-09-20T13:08:41;11.00;;;2.03;;
43678;SDS011;29279;50.858;4.392;2022-09-20T13:19:19;8.98;;;1.58;;
43678;SDS011;29279;50.858;4.392;2022-09-20T13:24:47;9.63;;;1.48;;
43678;SDS011;29279;50.858;4.392;2022-09-20T13:27:17;17.70;;;2.00;;
43678;SDS011;29279;50.858;4.392;2022-09-20T13:29:48;5.00;;;1.02;;
43678;SDS011;29279;50.858;4.392;2022-09-20T13:35:12;5.53;;;1.67;;
43678;SDS011;29279;50.858;4.392;2022-09-20T13:37:56;18.10;;;2.72;;
43678;SDS011;29279;50.858;4.392;2022-09-20T13:40:36;4.93;;;1.23;;
43678;SDS011;29279;50.858;4.392;2022-09-20T13:45:58;10.32;;;1.77;;
43678;SDS011;29279;50.858;4.392;2022-09-20T13:48:30;12.35;;;2.20;;
43678;SDS011;29279;50.858;4.392;2022-09-20T13:50:56;4.97;;;1.15;;
43678;SDS011;29279;50.858;4.392;2022-09-20T13:53:23;2.88;;;0.77;;
43678;SDS011;29279;50.858;4.392;2022-09-20T13:55:50;5.47;;;1.30;;
43678;SDS011;29279;50.858;4.392;2022-09-20T14:00:58;6.75;;;1.25;;
43678;SDS011;29279;50.858;4.392;2022-09-20T14:03:25;5.65;;;1.35;;
43678;SDS011;29279;50.858;4.392;2022-09-20T14:05:57;5.93;;;1.05;;
43678;SDS011;29279;50.858;4.392;2022-09-20T14:08:30;4.05;;;1.05;;
43678;SDS011;29279;50.858;4.392;2022-09-20T14:11:02;8.75;;;1.88;;
43678;SDS011;29279;50.858;4.392;2022-09-20T14:13:41;7.75;;;1.50;;
43678;SDS011;29279;50.858;4.392;2022-09-20T14:16:08;3.47;;;1.10;;
43678;SDS011;29279;50.858;4.392;2022-09-20T14:18:35;15.02;;;2.10;;
43678;SDS011;29279;50.858;4.392;2022-09-20T14:21:05;6.78;;;1.35;;
43678;SDS011;29279;50.858;4.392;2022-09-20T14:23:46;8.82;;;1.17;;
43678;SDS011;29279;50.858;4.392;2022-09-20T14:26:21;6.90;;;1.48;;
43678;SDS011;29279;50.858;4.392;2022-09-20T14:28:52;7.18;;;1.52;;
43678;SDS011;29279;50.858;4.392;2022-09-20T14:31:29;5.28;;;1.42;;
43678;SDS011;29279;50.858;4.392;2022-09-20T14:33:58;8.48;;;1.40;;
43678;SDS011;29279;50.858;4.392;2022-09-20T14:36:26;11.63;;;2.08;;
43678;SDS011;29279;50.858;4.392;2022-09-20T14:38:58;5.38;;;1.20;;
43678;SDS011;29279;50.858;4.392;2022-09-20T14:41:35;9.15;;;1.92;;
43678;SDS011;29279;50.858;4.392;2022-09-20T14:44:03;12.05;;;1.50;;
43678;SDS011;29279;50.858;4.392;2022-09-20T14:46:35;6.22;;;1.52;;
43678;SDS011;29279;50.858;4.392;2022-09-20T14:51:50;5.93;;;1.80;;
43678;SDS011;29279;50.858;4.392;2022-09-20T14:54:39;5.60;;;1.48;;
43678;SDS011;29279;50.858;4.392;2022-09-20T14:57:07;6.90;;;1.42;;
43678;SDS011;29279;50.858;4.392;2022-09-20T14:59:37;7.60;;;1.50;;
43678;SDS011;29279;50.858;4.392;2022-09-20T15:04:34;7.53;;;1.35;;
43678;SDS011;29279;50.858;4.392;2022-09-20T15:07:02;9.88;;;1.55;;
43678;SDS011;29279;50.858;4.392;2022-09-20T15:09:30;6.07;;;1.23;;
43678;SDS011;29279;50.858;4.392;2022-09-20T15:12:04;8.68;;;1.40;;
43678;SDS011;29279;50.858;4.392;2022-09-20T15:14:31;3.28;;;1.17;;
43678;SDS011;29279;50.858;4.392;2022-09-20T15:16:57;7.75;;;1.40;;
43678;SDS011;29279;50.858;4.392;2022-09-20T15:19:24;14.07;;;1.67;;
43678;SDS011;29279;50.858;4.392;2022-09-20T15:21:50;4.72;;;1.60;;
43678;SDS011;29279;50.858;4.392;2022-09-20T15:24:16;6.38;;;2.38;;
43678;SDS011;29279;50.858;4.392;2022-09-20T15:26:43;9.05;;;2.40;;
43678;SDS011;29279;50.858;4.392;2022-09-20T15:29:13;6.75;;;1.55;;
43678;SDS011;29279;50.858;4.392;2022-09-20T15:31:41;6.22;;;1.50;;
43678;SDS011;29279;50.858;4.392;2022-09-20T15:34:06;10.38;;;1.40;;
43678;SDS011;29279;50.858;4.392;2022-09-20T15:36:32;5.90;;;1.52;;
43678;SDS011;29279;50.858;4.392;2022-09-20T15:38:58;6.05;;;1.10;;
43678;SDS011;29279;50.858;4.392;2022-09-20T15:41:24;5.28;;;1.60;;
43678;SDS011;29279;50.858;4.392;2022-09-20T15:43:49;3.95;;;1.10;;
43678;SDS011;29279;50.858;4.392;2022-09-20T15:46:16;6.22;;;1.70;;
43678;SDS011;29279;50.858;4.392;2022-09-20T15:48:45;7.68;;;1.40;;
43678;SDS011;29279;50.858;4.392;2022-09-20T15:51:11;7.45;;;1.40;;
43678;SDS011;29279;50.858;4.392;2022-09-20T15:53:39;6.90;;;1.52;;
43678;SDS011;29279;50.858;4.392;2022-09-20T15:56:13;9.52;;;1.80;;
43678;SDS011;29279;50.858;4.392;2022-09-20T15:58:45;5.00;;;1.33;;
43678;SDS011;29279;50.858;4.392;2022-09-20T16:01:28;7.28;;;1.00;;
43678;SDS011;29279;50.858;4.392;2022-09-20T16:06:36;5.20;;;1.27;;
43678;SDS011;29279;50.858;4.392;2022-09-20T16:09:03;5.57;;;1.33;;
43678;SDS011;29279;50.858;4.392;2022-09-20T16:11:29;7.22;;;1.65;;
43678;SDS011;29279;50.858;4.392;2022-09-20T16:13:56;9.23;;;1.52;;
43678;SDS011;29279;50.858;4.392;2022-09-20T16:16:23;7.57;;;1.58;;
43678;SDS011;29279;50.858;4.392;2022-09-20T16:18:50;6.57;;;1.58;;
43678;SDS011;29279;50.858;4.392;2022-09-20T16:21:35;7.75;;;1.90;;
43678;SDS011;29279;50.858;4.392;2022-09-20T16:24:03;6.65;;;2.17;;
43678;SDS011;29279;50.858;4.392;2022-09-20T16:26:30;7.40;;;2.10;;
43678;SDS011;29279;50.858;4.392;2022-09-20T16:28:57;8.88;;;1.67;;
43678;SDS011;29279;50.858;4.392;2022-09-20T16:34:15;13.50;;;1.90;;
43678;SDS011;29279;50.858;4.392;2022-09-20T16:36:42;8.07;;;1.90;;
43678;SDS011;29279;50.858;4.392;2022-09-20T16:39:10;6.00;;;1.67;;
43678;SDS011;29279;50.858;4.392;2022-09-20T16:41:36;5.07;;;1.80;;
43678;SDS011;29279;50.858;4.392;2022-09-20T16:44:03;13.95;;;2.45;;
43678;SDS011;29279;50.858;4.392;2022-09-20T16:46:30;12.05;;;3.35;;
43678;SDS011;29279;50.858;4.392;2022-09-20T16:48:57;15.63;;;2.50;;
43678;SDS011;29279;50.858;4.392;2022-09-20T16:51:27;10.07;;;2.78;;
43678;SDS011;29279;50.858;4.392;2022-09-20T16:53:57;6.43;;;1.65;;
43678;SDS011;29279;50.858;4.392;2022-09-20T16:56:26;9.32;;;2.47;;
43678;SDS011;29279;50.858;4.392;2022-09-20T16:58:53;5.65;;;2.22;;
43678;SDS011;29279;50.858;4.392;2022-09-20T17:01:19;10.98;;;2.80;;
43678;SDS011;29279;50.858;4.392;2022-09-20T17:03:47;6.03;;;2.13;;
43678;SDS011;29279;50.858;4.392;2022-09-20T17:06:13;11.25;;;3.00;;
43678;SDS011;29279;50.858;4.392;2022-09-20T17:08:39;14.93;;;2.67;;
43678;SDS011;29279;50.858;4.392;2022-09-20T17:11:07;11.07;;;2.72;;
43678;SDS011;29279;50.858;4.392;2022-09-20T17:13:36;12.77;;;2.60;;
43678;SDS011;29279;50.858;4.392;2022-09-20T17:16:10;9.10;;;3.00;;
43678;SDS011;29279;50.858;4.392;2022-09-20T17:18:37;8.52;;;2.33;;
43678;SDS011;29279;50.858;4.392;2022-09-20T17:21:07;8.95;;;2.42;;
43678;SDS011;29279;50.858;4.392;2022-09-20T17:23:34;11.55;;;2.85;;
43678;SDS011;29279;50.858;4.392;2022-09-20T17:26:08;7.18;;;2.35;;
43678;SDS011;29279;50.858;4.392;2022-09-20T17:28:36;14.18;;;2.95;;
43678;SDS011;29279;50.858;4.392;2022-09-20T17:31:03;8.48;;;2.33;;
43678;SDS011;29279;50.858;4.392;2022-09-20T17:33:31;8.05;;;2.20;;
43678;SDS011;29279;50.858;4.392;2022-09-20T17:35:58;13.93;;;2.97;;
43678;SDS011;29279;50.858;4.392;2022-09-20T17:38:25;12.70;;;3.45;;
43678;SDS011;29279;50.858;4.392;2022-09-20T17:41:25;9.57;;;3.05;;
43678;SDS011;29279;50.858;4.392;2022-09-20T17:43:45;22.17;;;4.40;;
43678;SDS011;29279;50.858;4.392;2022-09-20T17:48:39;11.98;;;3.33;;
43678;SDS011;29279;50.858;4.392;2022-09-20T17:51:05;10.65;;;3.55;;
43678;SDS011;29279;50.858;4.392;2022-09-20T17:53:33;11.60;;;3.42;;
43678;SDS011;29279;50.858;4.392;2022-09-20T17:55:59;14.73;;;3.13;;
43678;SDS011;29279;50.858;4.392;2022-09-20T17:58:26;6.75;;;2.83;;
43678;SDS011;29279;50.858;4.392;2022-09-20T18:00:52;12.35;;;3.35;;
43678;SDS011;29279;50.858;4.392;2022-09-20T18:03:21;6.45;;;2.80;;
43678;SDS011;29279;50.858;4.392;2022-09-20T18:05:50;15.23;;;4.10;;
43678;SDS011;29279;50.858;4.392;2022-09-20T18:08:17;35.08;;;8.23;;
43678;SDS011;29279;50.858;4.392;2022-09-20T18:10:53;12.27;;;4.40;;
43678;SDS011;29279;50.858;4.392;2022-09-20T18:13:22;16.17;;;3.85;;
43678;SDS011;29279;50.858;4.392;2022-09-20T18:15:51;19.20;;;4.57;;
43678;SDS011;29279;50.858;4.392;2022-09-20T18:18:18;9.07;;;3.53;;
43678;SDS011;29279;50.858;4.392;2022-09-20T18:20:44;19.73;;;4.60;;
43678;SDS011;29279;50.858;4.392;2022-09-20T18:23:10;9.07;;;3.92;;
43678;SDS011;29279;50.858;4.392;2022-09-20T18:25:36;15.70;;;4.28;;
43678;SDS011;29279;50.858;4.392;2022-09-20T18:28:20;13.48;;;4.25;;
43678;SDS011;29279;50.858;4.392;2022-09-20T18:30:46;13.07;;;4.35;;
43678;SDS011;29279;50.858;4.392;2022-09-20T18:33:30;15.43;;;4.80;;
43678;SDS011;29279;50.858;4.392;2022-09-20T18:36:03;29.75;;;6.60;;
43678;SDS011;29279;50.858;4.392;2022-09-20T18:38:30;16.83;;;5.13;;
43678;SDS011;29279;50.858;4.392;2022-09-20T18:40:57;17.23;;;5.22;;
43678;SDS011;29279;50.858;4.392;2022-09-20T18:43:30;16.13;;;5.85;;
43678;SDS011;29279;50.858;4.392;2022-09-20T18:45:59;12.90;;;5.45;;
43678;SDS011;29279;50.858;4.392;2022-09-20T18:48:25;12.15;;;5.03;;
43678;SDS011;29279;50.858;4.392;2022-09-20T18:50:57;13.65;;;5.25;;
43678;SDS011;29279;50.858;4.392;2022-09-20T18:53:28;16.58;;;5.40;;
43678;SDS011;29279;50.858;4.392;2022-09-20T18:58:49;10.35;;;4.70;;
43678;SDS011;29279;50.858;4.392;2022-09-20T19:07:06;17.35;;;5.55;;
43678;SDS011;29279;50.858;4.392;2022-09-20T19:15:14;15.38;;;5.55;;
43678;SDS011;29279;50.858;4.392;2022-09-20T19:21:07;39.50;;;12.52;;
43678;SDS011;29279;50.858;4.392;2022-09-20T19:24:14;23.08;;;5.38;;
43678;SDS011;29279;50.858;4.392;2022-09-20T19:26:47;23.42;;;5.80;;
43678;SDS011;29279;50.858;4.392;2022-09-20T19:29:31;33.70;;;9.80;;
43678;SDS011;29279;50.858;4.392;2022-09-20T19:31:57;15.05;;;5.07;;
43678;SDS011;29279;50.858;4.392;2022-09-20T19:34:25;12.93;;;4.45;;
43678;SDS011;29279;50.858;4.392;2022-09-20T19:52:57;9.88;;;4.05;;
43678;SDS011;29279;50.858;4.392;2022-09-20T19:55:27;10.70;;;3.75;;
43678;SDS011;29279;50.858;4.392;2022-09-20T19:57:54;8.18;;;3.92;;
43678;SDS011;29279;50.858;4.392;2022-09-20T20:00:20;12.25;;;4.30;;
43678;SDS011;29279;50.858;4.392;2022-09-20T20:02:47;8.98;;;3.70;;
43678;SDS011;29279;50.858;4.392;2022-09-20T20:05:15;14.05;;;4.38;;
43678;SDS011;29279;50.858;4.392;2022-09-20T20:10:52;16.27;;;4.60;;
43678;SDS011;29279;50.858;4.392;2022-09-20T20:13:43;10.80;;;3.53;;
43678;SDS011;29279;50.858;4.392;2022-09-20T20:16:36;17.55;;;4.97;;
43678;SDS011;29279;50.858;4.392;2022-09-20T20:19:26;13.25;;;4.88;;
43678;SDS011;29279;50.858;4.392;2022-09-20T20:21:56;10.40;;;3.83;;
43678;SDS011;29279;50.858;4.392;2022-09-20T20:27:05;15.48;;;3.75;;
43678;SDS011;29279;50.858;4.392;2022-09-20T20:29:31;12.30;;;3.85;;
43678;SDS011;29279;50.858;4.392;2022-09-20T20:31:56;11.80;;;4.22;;
43678;SDS011;29279;50.858;4.392;2022-09-20T20:34:22;12.52;;;3.88;;
43678;SDS011;29279;50.858;4.392;2022-09-20T20:36:50;13.05;;;4.50;;
43678;SDS011;29279;50.858;4.392;2022-09-20T20:39:23;11.85;;;3.60;;
43678;SDS011;29279;50.858;4.392;2022-09-20T20:41:53;14.98;;;3.60;;
43678;SDS011;29279;50.858;4.392;2022-09-20T20:44:19;13.80;;;3.95;;
43678;SDS011;29279;50.858;4.392;2022-09-20T20:46:46;11.35;;;3.83;;
43678;SDS011;29279;50.858;4.392;2022-09-20T20:49:12;13.20;;;3.95;;
43678;SDS011;29279;50.858;4.392;2022-09-20T20:51:38;10.35;;;3.70;;
43678;SDS011;29279;50.858;4.392;2022-09-20T20:54:03;11.70;;;3.92;;
43678;SDS011;29279;50.858;4.392;2022-09-20T20:56:29;11.73;;;4.30;;
43678;SDS011;29279;50.858;4.392;2022-09-20T20:58:56;9.25;;;4.20;;
43678;SDS011;29279;50.858;4.392;2022-09-20T21:01:25;8.43;;;3.70;;
43678;SDS011;29279;50.858;4.392;2022-09-20T21:03:53;13.35;;;4.55;;
43678;SDS011;29279;50.858;4.392;2022-09-20T21:06:20;15.23;;;5.20;;
43678;SDS011;29279;50.858;4.392;2022-09-20T21:08:50;9.95;;;4.45;;
43678;SDS011;29279;50.858;4.392;2022-09-20T21:11:17;15.23;;;5.30;;
43678;SDS011;29279;50.858;4.392;2022-09-20T21:13:45;11.25;;;4.97;;
43678;SDS011;29279;50.858;4.392;2022-09-20T21:16:15;12.38;;;4.15;;
43678;SDS011;29279;50.858;4.392;2022-09-20T21:18:45;12.50;;;4.18;;
43678;SDS011;29279;50.858;4.392;2022-09-20T21:21:14;10.65;;;5.07;;
43678;SDS011;29279;50.858;4.392;2022-09-20T21:24:02;14.30;;;4.97;;
43678;SDS011;29279;50.858;4.392;2022-09-20T21:26:29;16.20;;;5.75;;
43678;SDS011;29279;50.858;4.392;2022-09-20T21:28:56;15.52;;;5.85;;
43678;SDS011;29279;50.858;4.392;2022-09-20T21:31:24;16.60;;;5.82;;
43678;SDS011;29279;50.858;4.392;2022-09-20T21:33:51;31.30;;;7.55;;
43678;SDS011;29279;50.858;4.392;2022-09-20T21:36:18;12.35;;;5.63;;
43678;SDS011;29279;50.858;4.392;2022-09-20T21:38:46;20.23;;;5.85;;
43678;SDS011;29279;50.858;4.392;2022-09-20T21:43:42;19.90;;;5.55;;
43678;SDS011;29279;50.858;4.392;2022-09-20T21:46:13;14.73;;;5.80;;
43678;SDS011;29279;50.858;4.392;2022-09-20T21:48:43;13.75;;;5.85;;
43678;SDS011;29279;50.858;4.392;2022-09-20T21:51:10;17.88;;;6.80;;